Fuerte Quemado, Argentina
Current Conditions -  °F | °C
As of 9:00 PM on Tuesday 21 Oct 2014 (Local Time) from SANT Reporting Station
Broken Clouds Broken Clouds  
Wind Chill: 79°   Ceiling: 20000
Heat Index: 81°   Visibility: 5mi
Dew Point: 64°   Wind: 5mph
Humidity: 61%   Direction: 270°W
Pressure: 29.94"   Gusts: NA
Location:  26.4°S, 66°W
Report Text: SANT 220000Z 27004KT 8000 FEW040 BKN20026/18 Q1014
Loading
Personal Weather Stations






























Interactive Weather Map
Tropical Storm Tracking
New forecast layout! Learn more

10-Day Weather Forecast

Advertisements
Track Severe Weather on mobile